sensor_id;sensor_type;location;lat;lon;timestamp;temperature;humidity
37052;DHT22;22964;52.272;13.356;2022-07-05T00:01:03;20.20;41.90
37052;DHT22;22964;52.272;13.356;2022-07-05T00:03:29;20.10;42.10
37052;DHT22;22964;52.272;13.356;2022-07-05T00:05:55;20.10;42.10
37052;DHT22;22964;52.272;13.356;2022-07-05T00:08:21;20.10;42.50
37052;DHT22;22964;52.272;13.356;2022-07-05T00:10:47;20.00;42.50
37052;DHT22;22964;52.272;13.356;2022-07-05T00:13:13;19.90;42.50
37052;DHT22;22964;52.272;13.356;2022-07-05T00:15:39;19.90;43.40
37052;DHT22;22964;52.272;13.356;2022-07-05T00:18:05;19.90;42.70
37052;DHT22;22964;52.272;13.356;2022-07-05T00:20:31;19.80;42.70
37052;DHT22;22964;52.272;13.356;2022-07-05T00:22:57;19.80;42.80
37052;DHT22;22964;52.272;13.356;2022-07-05T00:25:23;19.80;42.90
37052;DHT22;22964;52.272;13.356;2022-07-05T00:27:48;19.80;43.00
37052;DHT22;22964;52.272;13.356;2022-07-05T00:30:14;19.70;43.00
37052;DHT22;22964;52.272;13.356;2022-07-05T00:32:40;19.60;43.00
37052;DHT22;22964;52.272;13.356;2022-07-05T00:35:07;19.60;43.20
37052;DHT22;22964;52.272;13.356;2022-07-05T00:37:33;19.50;43.30
37052;DHT22;22964;52.272;13.356;2022-07-05T00:39:59;19.50;43.60
37052;DHT22;22964;52.272;13.356;2022-07-05T00:42:25;19.50;44.40
37052;DHT22;22964;52.272;13.356;2022-07-05T00:44:51;19.40;43.80
37052;DHT22;22964;52.272;13.356;2022-07-05T00:47:17;19.40;43.90
37052;DHT22;22964;52.272;13.356;2022-07-05T00:49:43;19.40;43.90
37052;DHT22;22964;52.272;13.356;2022-07-05T00:52:10;19.30;44.00
37052;DHT22;22964;52.272;13.356;2022-07-05T00:54:37;19.40;44.10
37052;DHT22;22964;52.272;13.356;2022-07-05T00:57:03;19.30;44.20
37052;DHT22;22964;52.272;13.356;2022-07-05T00:59:30;19.30;44.10
37052;DHT22;22964;52.272;13.356;2022-07-05T01:01:58;19.30;44.40
37052;DHT22;22964;52.272;13.356;2022-07-05T01:04:23;19.30;44.40
37052;DHT22;22964;52.272;13.356;2022-07-05T01:06:50;19.20;44.50
37052;DHT22;22964;52.272;13.356;2022-07-05T01:09:18;19.20;44.60
37052;DHT22;22964;52.272;13.356;2022-07-05T01:11:44;19.20;44.80
37052;DHT22;22964;52.272;13.356;2022-07-05T01:14:17;19.20;44.90
37052;DHT22;22964;52.272;13.356;2022-07-05T01:16:43;19.20;45.40
37052;DHT22;22964;52.272;13.356;2022-07-05T01:19:10;19.10;44.90
37052;DHT22;22964;52.272;13.356;2022-07-05T01:21:40;19.10;45.00
37052;DHT22;22964;52.272;13.356;2022-07-05T01:24:07;19.10;45.20
37052;DHT22;22964;52.272;13.356;2022-07-05T01:26:34;19.00;45.10
37052;DHT22;22964;52.272;13.356;2022-07-05T01:29:00;19.00;45.00
37052;DHT22;22964;52.272;13.356;2022-07-05T01:31:26;19.00;45.10
37052;DHT22;22964;52.272;13.356;2022-07-05T01:33:51;18.90;45.30
37052;DHT22;22964;52.272;13.356;2022-07-05T01:36:18;18.90;45.50
37052;DHT22;22964;52.272;13.356;2022-07-05T01:38:44;18.90;45.60
37052;DHT22;22964;52.272;13.356;2022-07-05T01:41:10;18.90;45.60
37052;DHT22;22964;52.272;13.356;2022-07-05T01:43:36;18.80;45.80
37052;DHT22;22964;52.272;13.356;2022-07-05T01:46:02;18.80;45.90
37052;DHT22;22964;52.272;13.356;2022-07-05T01:48:32;18.80;45.80
37052;DHT22;22964;52.272;13.356;2022-07-05T01:51:05;18.80;46.00
37052;DHT22;22964;52.272;13.356;2022-07-05T01:53:33;18.70;46.10
37052;DHT22;22964;52.272;13.356;2022-07-05T01:56:00;18.70;45.90
37052;DHT22;22964;52.272;13.356;2022-07-05T01:58:27;18.70;46.10
37052;DHT22;22964;52.272;13.356;2022-07-05T02:00:54;18.60;45.90
37052;DHT22;22964;52.272;13.356;2022-07-05T02:03:21;18.60;46.00
37052;DHT22;22964;52.272;13.356;2022-07-05T02:05:47;18.60;46.10
37052;DHT22;22964;52.272;13.356;2022-07-05T02:08:19;18.50;46.20
37052;DHT22;22964;52.272;13.356;2022-07-05T02:10:45;18.50;46.30
37052;DHT22;22964;52.272;13.356;2022-07-05T02:13:12;18.50;46.40
37052;DHT22;22964;52.272;13.356;2022-07-05T02:15:40;18.40;46.60
37052;DHT22;22964;52.272;13.356;2022-07-05T02:18:08;18.40;46.80
37052;DHT22;22964;52.272;13.356;2022-07-05T02:20:38;18.40;46.90
37052;DHT22;22964;52.272;13.356;2022-07-05T02:23:04;18.30;46.90
37052;DHT22;22964;52.272;13.356;2022-07-05T02:25:30;18.30;47.00
37052;DHT22;22964;52.272;13.356;2022-07-05T02:28:00;18.30;47.20
37052;DHT22;22964;52.272;13.356;2022-07-05T02:30:25;18.20;47.30
37052;DHT22;22964;52.272;13.356;2022-07-05T02:32:51;18.20;47.50
37052;DHT22;22964;52.272;13.356;2022-07-05T02:35:17;18.20;47.60
37052;DHT22;22964;52.272;13.356;2022-07-05T02:37:44;18.20;47.70
37052;DHT22;22964;52.272;13.356;2022-07-05T02:40:11;18.10;47.60
37052;DHT22;22964;52.272;13.356;2022-07-05T02:42:40;18.10;47.70
37052;DHT22;22964;52.272;13.356;2022-07-05T02:45:09;18.10;47.80
37052;DHT22;22964;52.272;13.356;2022-07-05T02:47:36;18.10;47.80
37052;DHT22;22964;52.272;13.356;2022-07-05T02:50:06;18.00;47.80
37052;DHT22;22964;52.272;13.356;2022-07-05T02:52:34;18.00;48.20
37052;DHT22;22964;52.272;13.356;2022-07-05T02:55:05;18.00;47.90
37052;DHT22;22964;52.272;13.356;2022-07-05T02:57:31;18.00;48.40
37052;DHT22;22964;52.272;13.356;2022-07-05T02:59:59;18.00;48.30
37052;DHT22;22964;52.272;13.356;2022-07-05T03:02:35;17.90;48.30
37052;DHT22;22964;52.272;13.356;2022-07-05T03:05:01;17.90;48.40
37052;DHT22;22964;52.272;13.356;2022-07-05T03:07:28;17.90;49.30
37052;DHT22;22964;52.272;13.356;2022-07-05T03:09:53;17.90;48.70
37052;DHT22;22964;52.272;13.356;2022-07-05T03:12:20;17.90;48.80
37052;DHT22;22964;52.272;13.356;2022-07-05T03:14:46;17.90;48.90
37052;DHT22;22964;52.272;13.356;2022-07-05T03:17:13;17.90;48.90
37052;DHT22;22964;52.272;13.356;2022-07-05T03:19:39;17.80;49.00
37052;DHT22;22964;52.272;13.356;2022-07-05T03:22:06;17.80;49.20
37052;DHT22;22964;52.272;13.356;2022-07-05T03:24:34;17.80;49.30
37052;DHT22;22964;52.272;13.356;2022-07-05T03:27:01;17.80;49.40
37052;DHT22;22964;52.272;13.356;2022-07-05T03:29:28;17.90;49.40
37052;DHT22;22964;52.272;13.356;2022-07-05T03:31:54;17.90;49.40
37052;DHT22;22964;52.272;13.356;2022-07-05T03:34:19;17.90;49.40
37052;DHT22;22964;52.272;13.356;2022-07-05T03:36:45;17.90;49.50
37052;DHT22;22964;52.272;13.356;2022-07-05T03:39:15;17.90;49.60
37052;DHT22;22964;52.272;13.356;2022-07-05T03:41:41;17.90;49.70
37052;DHT22;22964;52.272;13.356;2022-07-05T03:44:09;17.90;49.90
37052;DHT22;22964;52.272;13.356;2022-07-05T03:46:35;18.00;50.00
37052;DHT22;22964;52.272;13.356;2022-07-05T03:49:01;18.00;50.10
37052;DHT22;22964;52.272;13.356;2022-07-05T03:51:27;18.00;50.30
37052;DHT22;22964;52.272;13.356;2022-07-05T03:53:54;18.00;50.40
37052;DHT22;22964;52.272;13.356;2022-07-05T03:56:21;18.10;50.60
37052;DHT22;22964;52.272;13.356;2022-07-05T03:58:51;18.10;50.70
37052;DHT22;22964;52.272;13.356;2022-07-05T04:01:17;18.20;50.90
37052;DHT22;22964;52.272;13.356;2022-07-05T04:03:43;18.30;51.10
37052;DHT22;22964;52.272;13.356;2022-07-05T04:06:12;18.30;51.20
37052;DHT22;22964;52.272;13.356;2022-07-05T04:08:39;18.40;51.20
37052;DHT22;22964;52.272;13.356;2022-07-05T04:11:05;18.40;51.30
37052;DHT22;22964;52.272;13.356;2022-07-05T04:13:32;18.50;51.50
37052;DHT22;22964;52.272;13.356;2022-07-05T04:15:58;18.60;51.50
37052;DHT22;22964;52.272;13.356;2022-07-05T04:18:24;18.70;51.80
37052;DHT22;22964;52.272;13.356;2022-07-05T04:20:52;18.70;52.60
37052;DHT22;22964;52.272;13.356;2022-07-05T04:23:19;18.80;52.10
37052;DHT22;22964;52.272;13.356;2022-07-05T04:25:45;18.90;52.50
37052;DHT22;22964;52.272;13.356;2022-07-05T04:28:17;19.00;52.40
37052;DHT22;22964;52.272;13.356;2022-07-05T04:30:45;19.10;52.30
37052;DHT22;22964;52.272;13.356;2022-07-05T04:33:12;19.20;52.40
37052;DHT22;22964;52.272;13.356;2022-07-05T04:35:40;19.30;52.50
37052;DHT22;22964;52.272;13.356;2022-07-05T04:38:06;19.40;52.50
37052;DHT22;22964;52.272;13.356;2022-07-05T04:40:34;19.50;52.50
37052;DHT22;22964;52.272;13.356;2022-07-05T04:43:00;19.60;52.50
37052;DHT22;22964;52.272;13.356;2022-07-05T04:45:26;19.70;52.40
37052;DHT22;22964;52.272;13.356;2022-07-05T04:47:52;19.80;52.40
37052;DHT22;22964;52.272;13.356;2022-07-05T04:50:20;19.90;52.40
37052;DHT22;22964;52.272;13.356;2022-07-05T04:52:46;20.00;52.20
37052;DHT22;22964;52.272;13.356;2022-07-05T04:55:12;20.20;52.20
37052;DHT22;22964;52.272;13.356;2022-07-05T04:57:39;20.30;52.10
37052;DHT22;22964;52.272;13.356;2022-07-05T05:00:06;20.40;52.20
37052;DHT22;22964;52.272;13.356;2022-07-05T05:02:33;20.50;52.10
37052;DHT22;22964;52.272;13.356;2022-07-05T05:04:59;20.60;52.00
37052;DHT22;22964;52.272;13.356;2022-07-05T05:07:25;20.70;52.00
37052;DHT22;22964;52.272;13.356;2022-07-05T05:09:50;20.80;51.90
37052;DHT22;22964;52.272;13.356;2022-07-05T05:12:16;21.00;51.90
37052;DHT22;22964;52.272;13.356;2022-07-05T05:14:42;21.10;51.70
37052;DHT22;22964;52.272;13.356;2022-07-05T05:17:07;21.20;51.60
37052;DHT22;22964;52.272;13.356;2022-07-05T05:19:33;21.30;51.40
37052;DHT22;22964;52.272;13.356;2022-07-05T05:21:59;21.40;51.40
37052;DHT22;22964;52.272;13.356;2022-07-05T05:24:24;21.60;51.30
37052;DHT22;22964;52.272;13.356;2022-07-05T05:26:50;21.70;51.30
37052;DHT22;22964;52.272;13.356;2022-07-05T05:29:17;21.80;51.10
37052;DHT22;22964;52.272;13.356;2022-07-05T05:31:43;21.90;50.90
37052;DHT22;22964;52.272;13.356;2022-07-05T05:34:08;22.10;50.80
37052;DHT22;22964;52.272;13.356;2022-07-05T05:36:34;22.10;50.50
37052;DHT22;22964;52.272;13.356;2022-07-05T05:39:00;22.30;50.50
37052;DHT22;22964;52.272;13.356;2022-07-05T05:41:26;22.40;50.30
37052;DHT22;22964;52.272;13.356;2022-07-05T05:43:51;22.50;50.10
37052;DHT22;22964;52.272;13.356;2022-07-05T05:46:17;22.60;50.20
37052;DHT22;22964;52.272;13.356;2022-07-05T05:48:43;22.70;49.90
37052;DHT22;22964;52.272;13.356;2022-07-05T05:51:08;22.90;49.80
37052;DHT22;22964;52.272;13.356;2022-07-05T05:53:34;23.00;49.60
37052;DHT22;22964;52.272;13.356;2022-07-05T05:56:00;23.10;49.20
37052;DHT22;22964;52.272;13.356;2022-07-05T05:58:25;23.30;49.10
37052;DHT22;22964;52.272;13.356;2022-07-05T06:00:52;23.40;48.70
37052;DHT22;22964;52.272;13.356;2022-07-05T06:03:19;23.50;48.40
37052;DHT22;22964;52.272;13.356;2022-07-05T06:05:45;23.60;48.10
37052;DHT22;22964;52.272;13.356;2022-07-05T06:08:12;23.70;47.90
37052;DHT22;22964;52.272;13.356;2022-07-05T06:10:38;23.80;47.90
37052;DHT22;22964;52.272;13.356;2022-07-05T06:13:06;23.90;47.90
37052;DHT22;22964;52.272;13.356;2022-07-05T06:15:33;24.00;47.70
37052;DHT22;22964;52.272;13.356;2022-07-05T06:17:59;24.20;47.70
37052;DHT22;22964;52.272;13.356;2022-07-05T06:20:27;24.30;47.40
37052;DHT22;22964;52.272;13.356;2022-07-05T06:22:54;24.50;46.80
37052;DHT22;22964;52.272;13.356;2022-07-05T06:25:21;24.60;46.70
37052;DHT22;22964;52.272;13.356;2022-07-05T06:30:19;25.00;46.00
37052;DHT22;22964;52.272;13.356;2022-07-05T06:32:46;25.20;45.30
37052;DHT22;22964;52.272;13.356;2022-07-05T06:35:13;25.30;45.00
37052;DHT22;22964;52.272;13.356;2022-07-05T06:37:53;25.40;44.50
37052;DHT22;22964;52.272;13.356;2022-07-05T06:40:27;25.50;44.00
37052;DHT22;22964;52.272;13.356;2022-07-05T06:42:55;25.70;43.60
37052;DHT22;22964;52.272;13.356;2022-07-05T06:45:24;25.80;43.50
37052;DHT22;22964;52.272;13.356;2022-07-05T06:47:58;25.80;43.30
37052;DHT22;22964;52.272;13.356;2022-07-05T06:50:26;26.00;43.90
37052;DHT22;22964;52.272;13.356;2022-07-05T06:52:52;26.10;43.20
37052;DHT22;22964;52.272;13.356;2022-07-05T06:55:18;26.20;43.10
37052;DHT22;22964;52.272;13.356;2022-07-05T06:57:43;26.40;43.90
37052;DHT22;22964;52.272;13.356;2022-07-05T07:00:11;26.50;43.10
37052;DHT22;22964;52.272;13.356;2022-07-05T07:02:37;26.70;42.50
37052;DHT22;22964;52.272;13.356;2022-07-05T07:05:03;26.80;42.40
37052;DHT22;22964;52.272;13.356;2022-07-05T07:07:31;27.00;41.90
37052;DHT22;22964;52.272;13.356;2022-07-05T07:10:16;27.10;41.00
37052;DHT22;22964;52.272;13.356;2022-07-05T07:12:41;27.20;41.10
37052;DHT22;22964;52.272;13.356;2022-07-05T07:15:07;27.20;41.10
37052;DHT22;22964;52.272;13.356;2022-07-05T07:17:33;27.30;41.10
37052;DHT22;22964;52.272;13.356;2022-07-05T07:19:59;27.30;41.00
37052;DHT22;22964;52.272;13.356;2022-07-05T07:22:24;27.40;40.90
37052;DHT22;22964;52.272;13.356;2022-07-05T07:24:50;27.50;40.80
37052;DHT22;22964;52.272;13.356;2022-07-05T07:27:16;27.50;40.70
37052;DHT22;22964;52.272;13.356;2022-07-05T07:29:42;27.60;41.00
37052;DHT22;22964;52.272;13.356;2022-07-05T07:32:08;27.70;41.10
37052;DHT22;22964;52.272;13.356;2022-07-05T07:34:35;27.90;41.30
37052;DHT22;22964;52.272;13.356;2022-07-05T07:37:02;28.10;41.10
37052;DHT22;22964;52.272;13.356;2022-07-05T07:39:28;28.30;40.80
37052;DHT22;22964;52.272;13.356;2022-07-05T07:41:53;28.40;40.30
37052;DHT22;22964;52.272;13.356;2022-07-05T07:44:19;28.50;39.90
37052;DHT22;22964;52.272;13.356;2022-07-05T07:46:45;28.60;39.60
37052;DHT22;22964;52.272;13.356;2022-07-05T07:49:12;28.70;39.50
37052;DHT22;22964;52.272;13.356;2022-07-05T07:51:38;28.80;39.30
37052;DHT22;22964;52.272;13.356;2022-07-05T07:54:05;28.80;39.10
37052;DHT22;22964;52.272;13.356;2022-07-05T07:56:31;28.80;39.00
37052;DHT22;22964;52.272;13.356;2022-07-05T07:58:56;28.80;39.00
37052;DHT22;22964;52.272;13.356;2022-07-05T08:01:22;28.80;39.10
37052;DHT22;22964;52.272;13.356;2022-07-05T08:03:49;28.80;38.80
37052;DHT22;22964;52.272;13.356;2022-07-05T08:06:15;28.90;39.00
37052;DHT22;22964;52.272;13.356;2022-07-05T08:08:42;28.90;38.90
37052;DHT22;22964;52.272;13.356;2022-07-05T08:11:09;28.90;39.00
37052;DHT22;22964;52.272;13.356;2022-07-05T08:13:36;29.00;38.80
37052;DHT22;22964;52.272;13.356;2022-07-05T08:16:02;29.00;38.50
37052;DHT22;22964;52.272;13.356;2022-07-05T08:18:28;29.00;38.50
37052;DHT22;22964;52.272;13.356;2022-07-05T08:21:13;29.10;38.30
37052;DHT22;22964;52.272;13.356;2022-07-05T08:24:01;29.10;38.30
37052;DHT22;22964;52.272;13.356;2022-07-05T08:26:27;29.10;38.10
37052;DHT22;22964;52.272;13.356;2022-07-05T08:28:53;29.10;38.50
37052;DHT22;22964;52.272;13.356;2022-07-05T08:31:19;29.20;38.40
37052;DHT22;22964;52.272;13.356;2022-07-05T08:33:45;29.30;38.50
37052;DHT22;22964;52.272;13.356;2022-07-05T08:36:11;29.40;38.80
37052;DHT22;22964;52.272;13.356;2022-07-05T08:38:36;29.50;38.60
37052;DHT22;22964;52.272;13.356;2022-07-05T08:41:02;29.60;38.50
37052;DHT22;22964;52.272;13.356;2022-07-05T08:43:28;29.80;38.20
37052;DHT22;22964;52.272;13.356;2022-07-05T08:45:56;30.00;37.80
37052;DHT22;22964;52.272;13.356;2022-07-05T08:48:24;30.10;37.40
37052;DHT22;22964;52.272;13.356;2022-07-05T08:50:50;30.30;37.40
37052;DHT22;22964;52.272;13.356;2022-07-05T08:53:18;30.50;37.40
37052;DHT22;22964;52.272;13.356;2022-07-05T08:55:45;30.60;37.20
37052;DHT22;22964;52.272;13.356;2022-07-05T08:58:11;30.80;36.80
37052;DHT22;22964;52.272;13.356;2022-07-05T09:00:40;30.90;36.80
37052;DHT22;22964;52.272;13.356;2022-07-05T09:03:07;31.10;36.30
37052;DHT22;22964;52.272;13.356;2022-07-05T09:05:39;31.20;35.80
37052;DHT22;22964;52.272;13.356;2022-07-05T09:08:09;31.30;35.50
37052;DHT22;22964;52.272;13.356;2022-07-05T09:10:37;31.50;35.50
37052;DHT22;22964;52.272;13.356;2022-07-05T09:13:05;31.60;35.00
37052;DHT22;22964;52.272;13.356;2022-07-05T09:15:30;31.80;35.00
37052;DHT22;22964;52.272;13.356;2022-07-05T09:17:56;31.90;34.70
37052;DHT22;22964;52.272;13.356;2022-07-05T09:20:22;31.90;34.70
37052;DHT22;22964;52.272;13.356;2022-07-05T09:22:55;32.00;34.40
37052;DHT22;22964;52.272;13.356;2022-07-05T09:25:31;32.10;33.80
37052;DHT22;22964;52.272;13.356;2022-07-05T09:28:00;32.20;33.30
37052;DHT22;22964;52.272;13.356;2022-07-05T09:33:14;32.30;33.20
37052;DHT22;22964;52.272;13.356;2022-07-05T09:35:51;32.40;33.00
37052;DHT22;22964;52.272;13.356;2022-07-05T09:38:21;32.50;33.40
37052;DHT22;22964;52.272;13.356;2022-07-05T09:40:52;32.70;33.30
37052;DHT22;22964;52.272;13.356;2022-07-05T09:43:22;32.70;32.40
37052;DHT22;22964;52.272;13.356;2022-07-05T09:48:21;32.90;31.40
37052;DHT22;22964;52.272;13.356;2022-07-05T09:50:48;32.90;31.90
37052;DHT22;22964;52.272;13.356;2022-07-05T09:53:17;32.90;31.30
37052;DHT22;22964;52.272;13.356;2022-07-05T09:56:02;33.00;31.40
37052;DHT22;22964;52.272;13.356;2022-07-05T09:58:29;32.90;30.60
37052;DHT22;22964;52.272;13.356;2022-07-05T10:00:55;33.00;31.50
37052;DHT22;22964;52.272;13.356;2022-07-05T10:03:20;32.90;31.80
37052;DHT22;22964;52.272;13.356;2022-07-05T10:05:46;33.00;31.10
37052;DHT22;22964;52.272;13.356;2022-07-05T10:08:13;33.00;31.10
37052;DHT22;22964;52.272;13.356;2022-07-05T10:10:41;33.10;31.10
37052;DHT22;22964;52.272;13.356;2022-07-05T10:13:07;33.20;30.40
37052;DHT22;22964;52.272;13.356;2022-07-05T10:15:35;33.30;30.60
37052;DHT22;22964;52.272;13.356;2022-07-05T10:18:06;33.30;29.90
37052;DHT22;22964;52.272;13.356;2022-07-05T10:23:03;33.30;29.50
37052;DHT22;22964;52.272;13.356;2022-07-05T10:25:30;33.20;29.50
37052;DHT22;22964;52.272;13.356;2022-07-05T10:27:57;33.10;29.50
37052;DHT22;22964;52.272;13.356;2022-07-05T10:30:24;33.00;29.60
37052;DHT22;22964;52.272;13.356;2022-07-05T10:32:50;32.90;29.90
37052;DHT22;22964;52.272;13.356;2022-07-05T10:35:17;32.80;29.80
37052;DHT22;22964;52.272;13.356;2022-07-05T10:37:44;32.70;29.60
37052;DHT22;22964;52.272;13.356;2022-07-05T10:40:11;32.70;29.60
37052;DHT22;22964;52.272;13.356;2022-07-05T10:42:56;32.50;29.50
37052;DHT22;22964;52.272;13.356;2022-07-05T10:50:45;32.40;29.30
37052;DHT22;22964;52.272;13.356;2022-07-05T10:53:11;32.30;29.50
37052;DHT22;22964;52.272;13.356;2022-07-05T10:55:56;32.30;29.90
37052;DHT22;22964;52.272;13.356;2022-07-05T11:03:44;32.50;29.50
37052;DHT22;22964;52.272;13.356;2022-07-05T11:06:28;32.60;29.50
37052;DHT22;22964;52.272;13.356;2022-07-05T11:13:58;32.70;29.10
37052;DHT22;22964;52.272;13.356;2022-07-05T11:16:34;32.70;29.30
37052;DHT22;22964;52.272;13.356;2022-07-05T11:19:09;32.60;28.90
37052;DHT22;22964;52.272;13.356;2022-07-05T11:21:37;32.60;28.90
37052;DHT22;22964;52.272;13.356;2022-07-05T11:24:23;32.50;29.10
37052;DHT22;22964;52.272;13.356;2022-07-05T11:26:50;32.40;28.80
37052;DHT22;22964;52.272;13.356;2022-07-05T11:29:47;32.20;29.20
37052;DHT22;22964;52.272;13.356;2022-07-05T11:32:35;32.00;29.30
37052;DHT22;22964;52.272;13.356;2022-07-05T11:35:16;32.00;29.40
37052;DHT22;22964;52.272;13.356;2022-07-05T11:40:29;31.90;29.60
37052;DHT22;22964;52.272;13.356;2022-07-05T11:42:55;32.00;29.80
37052;DHT22;22964;52.272;13.356;2022-07-05T11:45:21;32.00;30.00
37052;DHT22;22964;52.272;13.356;2022-07-05T11:47:47;32.10;29.80
37052;DHT22;22964;52.272;13.356;2022-07-05T11:50:13;32.30;29.90
37052;DHT22;22964;52.272;13.356;2022-07-05T11:52:39;32.40;30.00
37052;DHT22;22964;52.272;13.356;2022-07-05T11:55:09;32.50;29.80
37052;DHT22;22964;52.272;13.356;2022-07-05T11:57:35;32.60;29.50
37052;DHT22;22964;52.272;13.356;2022-07-05T12:00:02;32.70;29.50
37052;DHT22;22964;52.272;13.356;2022-07-05T12:02:43;32.70;29.50
37052;DHT22;22964;52.272;13.356;2022-07-05T12:05:08;32.80;29.30
37052;DHT22;22964;52.272;13.356;2022-07-05T12:07:34;32.90;29.30
37052;DHT22;22964;52.272;13.356;2022-07-05T12:10:02;33.00;29.30
37052;DHT22;22964;52.272;13.356;2022-07-05T12:12:47;33.10;29.00
37052;DHT22;22964;52.272;13.356;2022-07-05T12:15:13;33.20;28.80
37052;DHT22;22964;52.272;13.356;2022-07-05T12:17:42;33.20;28.50
37052;DHT22;22964;52.272;13.356;2022-07-05T12:20:11;33.20;28.30
37052;DHT22;22964;52.272;13.356;2022-07-05T12:22:43;33.20;28.40
37052;DHT22;22964;52.272;13.356;2022-07-05T12:25:12;33.20;28.50
37052;DHT22;22964;52.272;13.356;2022-07-05T12:27:39;33.10;28.30
37052;DHT22;22964;52.272;13.356;2022-07-05T12:30:07;33.20;28.50
37052;DHT22;22964;52.272;13.356;2022-07-05T12:37:54;33.30;28.20
37052;DHT22;22964;52.272;13.356;2022-07-05T12:40:22;33.40;28.30
37052;DHT22;22964;52.272;13.356;2022-07-05T12:43:12;33.40;28.00
37052;DHT22;22964;52.272;13.356;2022-07-05T12:45:40;33.40;27.70
37052;DHT22;22964;52.272;13.356;2022-07-05T12:48:07;33.40;28.00
37052;DHT22;22964;52.272;13.356;2022-07-05T12:50:51;33.30;27.70
37052;DHT22;22964;52.272;13.356;2022-07-05T12:53:18;33.30;27.80
37052;DHT22;22964;52.272;13.356;2022-07-05T12:56:08;33.20;28.00
37052;DHT22;22964;52.272;13.356;2022-07-05T12:59:00;33.30;28.30
37052;DHT22;22964;52.272;13.356;2022-07-05T13:06:39;33.40;27.80
37052;DHT22;22964;52.272;13.356;2022-07-05T13:09:05;33.40;27.40
37052;DHT22;22964;52.272;13.356;2022-07-05T13:11:32;33.30;27.60
37052;DHT22;22964;52.272;13.356;2022-07-05T13:13:58;33.30;27.40
37052;DHT22;22964;52.272;13.356;2022-07-05T13:16:23;33.20;27.50
37052;DHT22;22964;52.272;13.356;2022-07-05T13:18:49;33.20;27.50
37052;DHT22;22964;52.272;13.356;2022-07-05T13:21:15;33.10;27.50
37052;DHT22;22964;52.272;13.356;2022-07-05T13:23:40;33.00;27.70
37052;DHT22;22964;52.272;13.356;2022-07-05T13:26:06;32.90;27.60
37052;DHT22;22964;52.272;13.356;2022-07-05T13:28:32;32.90;27.70
37052;DHT22;22964;52.272;13.356;2022-07-05T13:30:58;33.00;27.80
37052;DHT22;22964;52.272;13.356;2022-07-05T13:33:24;33.10;27.80
37052;DHT22;22964;52.272;13.356;2022-07-05T13:35:49;33.20;27.50
37052;DHT22;22964;52.272;13.356;2022-07-05T13:38:15;33.20;27.30
37052;DHT22;22964;52.272;13.356;2022-07-05T13:40:41;33.20;27.10
37052;DHT22;22964;52.272;13.356;2022-07-05T13:43:06;33.20;27.00
37052;DHT22;22964;52.272;13.356;2022-07-05T13:45:32;33.20;27.10
37052;DHT22;22964;52.272;13.356;2022-07-05T13:47:58;33.00;26.90
37052;DHT22;22964;52.272;13.356;2022-07-05T13:50:23;32.90;26.80
37052;DHT22;22964;52.272;13.356;2022-07-05T13:53:02;32.90;26.90
37052;DHT22;22964;52.272;13.356;2022-07-05T13:55:28;32.80;26.80
37052;DHT22;22964;52.272;13.356;2022-07-05T13:57:54;32.70;27.10
37052;DHT22;22964;52.272;13.356;2022-07-05T14:00:19;32.60;27.00
37052;DHT22;22964;52.272;13.356;2022-07-05T14:02:46;32.50;27.00
37052;DHT22;22964;52.272;13.356;2022-07-05T14:05:11;32.50;27.10
37052;DHT22;22964;52.272;13.356;2022-07-05T14:07:37;32.40;27.20
37052;DHT22;22964;52.272;13.356;2022-07-05T14:10:04;32.30;27.20
37052;DHT22;22964;52.272;13.356;2022-07-05T14:12:30;32.30;27.30
37052;DHT22;22964;52.272;13.356;2022-07-05T14:14:56;32.20;27.70
37052;DHT22;22964;52.272;13.356;2022-07-05T14:17:22;32.20;27.90
37052;DHT22;22964;52.272;13.356;2022-07-05T14:19:48;32.30;27.90
37052;DHT22;22964;52.272;13.356;2022-07-05T14:22:13;32.40;27.80
37052;DHT22;22964;52.272;13.356;2022-07-05T14:24:39;32.50;27.80
37052;DHT22;22964;52.272;13.356;2022-07-05T14:27:05;32.50;27.60
37052;DHT22;22964;52.272;13.356;2022-07-05T14:29:34;32.50;27.40
37052;DHT22;22964;52.272;13.356;2022-07-05T14:32:00;32.60;27.40
37052;DHT22;22964;52.272;13.356;2022-07-05T14:34:26;32.60;27.40
37052;DHT22;22964;52.272;13.356;2022-07-05T14:36:54;32.60;27.20
37052;DHT22;22964;52.272;13.356;2022-07-05T14:39:20;32.60;27.50
37052;DHT22;22964;52.272;13.356;2022-07-05T14:41:46;32.60;27.40
37052;DHT22;22964;52.272;13.356;2022-07-05T14:44:12;32.60;27.50
37052;DHT22;22964;52.272;13.356;2022-07-05T14:46:38;32.70;27.40
37052;DHT22;22964;52.272;13.356;2022-07-05T14:49:04;32.80;27.30
37052;DHT22;22964;52.272;13.356;2022-07-05T14:51:30;32.80;27.20
37052;DHT22;22964;52.272;13.356;2022-07-05T14:53:56;32.80;27.30
37052;DHT22;22964;52.272;13.356;2022-07-05T14:56:21;32.90;27.30
37052;DHT22;22964;52.272;13.356;2022-07-05T14:58:47;32.90;27.30
37052;DHT22;22964;52.272;13.356;2022-07-05T15:01:14;32.90;27.20
37052;DHT22;22964;52.272;13.356;2022-07-05T15:03:40;33.00;27.10
37052;DHT22;22964;52.272;13.356;2022-07-05T15:06:06;32.90;26.90
37052;DHT22;22964;52.272;13.356;2022-07-05T15:08:32;32.90;26.90
37052;DHT22;22964;52.272;13.356;2022-07-05T15:10:58;32.90;26.80
37052;DHT22;22964;52.272;13.356;2022-07-05T15:13:24;32.70;26.70
37052;DHT22;22964;52.272;13.356;2022-07-05T15:15:52;32.70;26.80
37052;DHT22;22964;52.272;13.356;2022-07-05T15:18:18;32.60;26.80
37052;DHT22;22964;52.272;13.356;2022-07-05T15:20:44;32.50;26.90
37052;DHT22;22964;52.272;13.356;2022-07-05T15:23:09;32.40;27.00
37052;DHT22;22964;52.272;13.356;2022-07-05T15:25:35;32.40;27.10
37052;DHT22;22964;52.272;13.356;2022-07-05T15:28:02;32.40;27.10
37052;DHT22;22964;52.272;13.356;2022-07-05T15:30:28;32.40;27.00
37052;DHT22;22964;52.272;13.356;2022-07-05T15:32:54;32.40;27.00
37052;DHT22;22964;52.272;13.356;2022-07-05T15:35:19;32.40;27.10
37052;DHT22;22964;52.272;13.356;2022-07-05T15:37:45;32.30;26.80
37052;DHT22;22964;52.272;13.356;2022-07-05T15:40:11;32.20;26.70
37052;DHT22;22964;52.272;13.356;2022-07-05T15:42:37;32.20;26.80
37052;DHT22;22964;52.272;13.356;2022-07-05T15:45:03;32.10;26.90
37052;DHT22;22964;52.272;13.356;2022-07-05T15:47:29;32.00;27.10
37052;DHT22;22964;52.272;13.356;2022-07-05T15:49:54;31.90;27.10
37052;DHT22;22964;52.272;13.356;2022-07-05T15:52:20;31.80;27.20
37052;DHT22;22964;52.272;13.356;2022-07-05T15:54:46;31.80;27.20
37052;DHT22;22964;52.272;13.356;2022-07-05T15:57:12;31.70;27.20